Genesis — WAI5517 — position and weather

sailwx.info

Track history (hours):
 
Tides and Currents Weather Stations Pressure Air Temp Water Temp Dewpoint Dewpoint Depression Visibility Wind Speed Wind Dir Waves Ship Positions

Genesis

Owner: GOLDSTEIN, ROBERT A, TARZANA, CA. More information available from US FCC via Universal Licensing System and Coast Guard Vessel Documentation Center.

Last reported at 2017-Sep-25 22:16 UTC. Time now 2017-Oct-18 02:29 UTC.
Position N 33°58' W 118°27'.
Warning: this ship's position is 22 days out of date.

Length 24 m; draft 2 m.

MMSI: 338045235.

Date/timePositionNaut miles runAvg speedWind from/ knotsBaromVisibWave heightAir tempDewpointWater temp
2017-Sep-25 22:16N 33°58' W 118°27'810.7
2017-Sep-25 21:34N 33°50' W 118°30'111.3
2017-Sep-25 21:27N 33°49' W 118°30'511.0
2017-Sep-25 21:00N 33°44' W 118°32'510.5
2017-Sep-25 20:29N 33°39' W 118°33'510.7
2017-Sep-25 20:00N 33°34' W 118°35'610.8
2017-Sep-25 19:29N 33°29' W 118°37'510.7
2017-Sep-25 19:00N 33°24' W 118°34'4 8.1
2017-Sep-25 18:30N 33°21' W 118°31'0 0.4
2017-Sep-25 18:00N 33°21' W 118°31'0 0.2
2017-Sep-25 17:30N 33°21' W 118°31'2 4.0
2017-Sep-25 17:00N 33°22' W 118°29'3 0.2
2017-Sep-25 01:48N 33°24' W 118°31'310.2
2017-Sep-25 01:30N 33°21' W 118°31'1 1.2
2017-Sep-25 00:21N 33°20' W 118°31'4 9.2
2017-Sep-24 23:58N 33°17' W 118°30'4 8.8
2017-Sep-24 23:29N 33°12' W 118°28'4 8.5
2017-Sep-24 23:00N 33°09' W 118°26'2 3.1
2017-Sep-24 22:31N 33°07' W 118°27'2 4.6
2017-Sep-24 22:00N 33°08' W 118°30'3 6.0
2017-Sep-24 21:30N 33°05' W 118°30'4 8.5
2017-Sep-24 21:00N 33°01' W 118°30'3 5.7
2017-Sep-24 20:30N 32°58' W 118°30'2 4.6
2017-Sep-24 20:00N 32°56' W 118°29'4 7.2
2017-Sep-24 19:30N 32°53' W 118°26'3 6.6
2017-Sep-24 19:00N 32°51' W 118°23'1 1.8
2017-Sep-24 18:28N 32°50' W 118°22'0 0.2
2017-Sep-24 17:57N 32°50' W 118°22'0 0.1
2017-Sep-24 17:25N 32°50' W 118°22'0 1.0
2017-Sep-24 17:00N 32°50' W 118°22'2 4.1
2017-Sep-24 16:30N 32°48' W 118°21'1 1.9
2017-Sep-24 15:57N 32°49' W 118°22'0 0.0
2017-Sep-24 15:30N 32°49' W 118°22'0 0.4
2017-Sep-24 15:01N 32°49' W 118°22'2 2.9
2017-Sep-24 14:25N 32°49' W 118°24'0 0.0
2017-Sep-24 13:58N 32°49' W 118°24'0 0.0
2017-Sep-24 13:19N 32°49' W 118°24'0 0.0
2017-Sep-24 12:58N 32°49' W 118°24'0 0.0
2017-Sep-24 12:28N 32°49' W 118°24'0 0.0
2017-Sep-24 11:46N 32°49' W 118°24'0 0.0
2017-Sep-24 11:25N 32°49' W 118°24'0 0.0
2017-Sep-24 10:58N 32°49' W 118°24'0 0.0
2017-Sep-24 10:28N 32°49' W 118°24'0 0.0
2017-Sep-24 09:40N 32°49' W 118°24'0 0.0
2017-Sep-24 06:19N 32°49' W 118°24'0 0.0
2017-Sep-24 05:46N 32°49' W 118°24'0 0.0
2017-Sep-24 05:28N 32°49' W 118°24'0 0.0
2017-Sep-24 04:29N 32°49' W 118°24'0 0.0
2017-Sep-24 03:59N 32°49' W 118°24'0 0.0
2017-Sep-24 03:21N 32°49' W 118°24'0 0.0
2017-Sep-24 03:00N 32°49' W 118°24'0 0.0
2017-Sep-24 02:30N 32°49' W 118°24'0 0.0
2017-Sep-24 01:59N 32°49' W 118°24'2 4.7
2017-Sep-24 01:30N 32°47' W 118°24'1 1.2
2017-Sep-24 01:00N 32°46' W 118°24'3 5.5
2017-Sep-24 00:30N 32°47' W 118°27'3 5.7
2017-Sep-23 23:59N 32°46' W 118°31'2 4.1
2017-Sep-23 23:30N 32°47' W 118°33'1 1.5
2017-Sep-23 22:53N 32°48' W 118°33'2 5.8
2017-Sep-23 22:30N 32°46' W 118°34'4 7.3
2017-Sep-23 21:59N 32°43' W 118°37'2 4.5
2017-Sep-23 21:30N 32°41' W 118°36'3 6.7
2017-Sep-23 21:00N 32°42' W 118°32'4 5.8
2017-Sep-23 20:23N 32°44' W 118°28'  
Track history (hours):
 
Tides and Currents Weather Stations Pressure Air Temp Water Temp Dewpoint Dewpoint Depression Visibility Wind Speed Wind Dir Waves Ship Positions

Genesis

Owner: GOLDSTEIN, ROBERT A, TARZANA, CA. More information available from US FCC via Universal Licensing System and Coast Guard Vessel Documentation Center.

Last reported at 2017-Sep-25 22:16 UTC. Time now 2017-Oct-18 02:29 UTC.
Position N 33°58' W 118°27'.
Warning: this ship's position is 22 days out of date.

Length 24 m; draft 2 m.

MMSI: 338045235.

Date/timePositionNaut miles runAvg speedWind from/ knotsBaromVisibWave heightAir tempDewpointWater temp
2017-Sep-25 22:16N 33°58' W 118°27'810.7
2017-Sep-25 21:34N 33°50' W 118°30'111.3
2017-Sep-25 21:27N 33°49' W 118°30'511.0
2017-Sep-25 21:00N 33°44' W 118°32'510.5
2017-Sep-25 20:29N 33°39' W 118°33'510.7
2017-Sep-25 20:00N 33°34' W 118°35'610.8
2017-Sep-25 19:29N 33°29' W 118°37'510.7
2017-Sep-25 19:00N 33°24' W 118°34'4 8.1
2017-Sep-25 18:30N 33°21' W 118°31'0 0.4
2017-Sep-25 18:00N 33°21' W 118°31'0 0.2
2017-Sep-25 17:30N 33°21' W 118°31'2 4.0
2017-Sep-25 17:00N 33°22' W 118°29'3 0.2
2017-Sep-25 01:48N 33°24' W 118°31'310.2
2017-Sep-25 01:30N 33°21' W 118°31'1 1.2
2017-Sep-25 00:21N 33°20' W 118°31'4 9.2
2017-Sep-24 23:58N 33°17' W 118°30'4 8.8
2017-Sep-24 23:29N 33°12' W 118°28'4 8.5
2017-Sep-24 23:00N 33°09' W 118°26'2 3.1
2017-Sep-24 22:31N 33°07' W 118°27'2 4.6
2017-Sep-24 22:00N 33°08' W 118°30'3 6.0
2017-Sep-24 21:30N 33°05' W 118°30'4 8.5
2017-Sep-24 21:00N 33°01' W 118°30'3 5.7
2017-Sep-24 20:30N 32°58' W 118°30'2 4.6
2017-Sep-24 20:00N 32°56' W 118°29'4 7.2
2017-Sep-24 19:30N 32°53' W 118°26'3 6.6
2017-Sep-24 19:00N 32°51' W 118°23'1 1.8
2017-Sep-24 18:28N 32°50' W 118°22'0 0.2
2017-Sep-24 17:57N 32°50' W 118°22'0 0.1
2017-Sep-24 17:25N 32°50' W 118°22'0 1.0
2017-Sep-24 17:00N 32°50' W 118°22'2 4.1
2017-Sep-24 16:30N 32°48' W 118°21'1 1.9
2017-Sep-24 15:57N 32°49' W 118°22'0 0.0
2017-Sep-24 15:30N 32°49' W 118°22'0 0.4
2017-Sep-24 15:01N 32°49' W 118°22'2 2.9
2017-Sep-24 14:25N 32°49' W 118°24'0 0.0
2017-Sep-24 13:58N 32°49' W 118°24'0 0.0
2017-Sep-24 13:19N 32°49' W 118°24'0 0.0
2017-Sep-24 12:58N 32°49' W 118°24'0 0.0
2017-Sep-24 12:28N 32°49' W 118°24'0 0.0
2017-Sep-24 11:46N 32°49' W 118°24'0 0.0
2017-Sep-24 11:25N 32°49' W 118°24'0 0.0
2017-Sep-24 10:58N 32°49' W 118°24'0 0.0
2017-Sep-24 10:28N 32°49' W 118°24'0 0.0
2017-Sep-24 09:40N 32°49' W 118°24'0 0.0
2017-Sep-24 06:19N 32°49' W 118°24'0 0.0
2017-Sep-24 05:46N 32°49' W 118°24'0 0.0
2017-Sep-24 05:28N 32°49' W 118°24'0 0.0
2017-Sep-24 04:29N 32°49' W 118°24'0 0.0
2017-Sep-24 03:59N 32°49' W 118°24'0 0.0
2017-Sep-24 03:21N 32°49' W 118°24'0 0.0
2017-Sep-24 03:00N 32°49' W 118°24'0 0.0
2017-Sep-24 02:30N 32°49' W 118°24'0 0.0
2017-Sep-24 01:59N 32°49' W 118°24'2 4.7
2017-Sep-24 01:30N 32°47' W 118°24'1 1.2
2017-Sep-24 01:00N 32°46' W 118°24'3 5.5
2017-Sep-24 00:30N 32°47' W 118°27'3 5.7
2017-Sep-23 23:59N 32°46' W 118°31'2 4.1
2017-Sep-23 23:30N 32°47' W 118°33'1 1.5
2017-Sep-23 22:53N 32°48' W 118°33'2 5.8
2017-Sep-23 22:30N 32°46' W 118°34'4 7.3
2017-Sep-23 21:59N 32°43' W 118°37'2 4.5
2017-Sep-23 21:30N 32°41' W 118°36'3 6.7
2017-Sep-23 21:00N 32°42' W 118°32'4 5.8
2017-Sep-23 20:23N 32°44' W 118°28'  

Dump ship's entire track history